^^
Station Historical Data
Daily Summary for July 12, 2017 Units:  Both    English   Metric
« Previous Day
Next Day »
Daily Weekly Monthly Yearly Custom
  High: Low: Average:
Temperature: 78.1 °F /  25.6 °C 50.0 °F /  10 °C 62 °F /  16.7 °C
Dew Point: 40.3 °F /  4.6 °C 33.1 °F /  0.6 °C 35.6 °F /  2 °C
Humidity: 57% 21% 40%
Wind Speed: 4.9mph /  7.9km/h - 0.4mph /  0.6km/h
Wind Gust: 8.0mph /  12.9km/h - -
Wind- - SSW
Pressure: 30.37 in /  1028.3 hPa 30.25 in /  1024.3 hPa -
Precipitation: 0.00 in /  0 mm    
Historical Graphs
 
 
Tabular Data for July 12, 2017
Time Temperature Dew Point Pressure Wind Wind Speed Wind Gust Humidity Rainfall Rate (Hourly) solar Conditions
00:05 53.8 °F /  12.1 °C 35.6 °F /  2 °C 30.33in /  1027hPa Calm   1.0mph /  1.6km/h 50% 0.00in /  0mm 0.0 W/m2
00:11 53.4 °F /  11.9 °C 35.8 °F /  2.1 °C 30.34in /  1027.3hPa Calm   1.0mph /  1.6km/h 51% 0.00in /  0mm 0.0 W/m2
00:17 53.2 °F /  11.8 °C 35.6 °F /  2 °C 30.34in /  1027.3hPa Calm     51% 0.00in /  0mm 0.0 W/m2
00:23 53.2 °F /  11.8 °C 35.6 °F /  2 °C 30.34in /  1027.3hPa Calm   1.0mph /  1.6km/h 51% 0.00in /  0mm 0.0 W/m2
00:29 53.1 °F /  11.7 °C 35.4 °F /  1.9 °C 30.34in /  1027.3hPa Calm     51% 0.00in /  0mm 0.0 W/m2
00:36 53.1 °F /  11.7 °C 35.4 °F /  1.9 °C 30.34in /  1027.3hPa Calm   1.0mph /  1.6km/h 51% 0.00in /  0mm 0.0 W/m2
00:42 53.1 °F /  11.7 °C 35.4 °F /  1.9 °C 30.34in /  1027.3hPa Calm   1.0mph /  1.6km/h 51% 0.00in /  0mm 0.0 W/m2
00:48 52.9 °F /  11.6 °C 35.8 °F /  2.1 °C 30.34in /  1027.3hPa Calm     52% 0.00in /  0mm 0.0 W/m2
00:54 52.7 °F /  11.5 °C 35.6 °F /  2 °C 30.34in /  1027.3hPa Calm   2.0mph /  3.2km/h 52% 0.00in /  0mm 0.0 W/m2
01:00 52.5 °F /  11.4 °C 35.4 °F /  1.9 °C 30.33in /  1027hPa Calm   1.0mph /  1.6km/h 52% 0.00in /  0mm 0.0 W/m2
01:06 52.5 °F /  11.4 °C 35.4 °F /  1.9 °C 30.33in /  1027hPa Calm   1.0mph /  1.6km/h 52% 0.00in /  0mm 0.0 W/m2
01:12 52.3 °F /  11.3 °C 35.8 °F /  2.1 °C 30.33in /  1027hPa Calm     53% 0.00in /  0mm 0.0 W/m2
01:18 52.2 °F /  11.2 °C 35.6 °F /  2 °C 30.33in /  1027hPa Calm     53% 0.00in /  0mm 0.0 W/m2
01:25 51.8 °F /  11 °C 35.6 °F /  2 °C 30.32in /  1026.6hPa Calm     54% 0.00in /  0mm 0.0 W/m2
01:31 51.4 °F /  10.8 °C 35.4 °F /  1.9 °C 30.32in /  1026.6hPa Calm   1.0mph /  1.6km/h 54% 0.00in /  0mm 0.0 W/m2
01:37 51.4 °F /  10.8 °C 35.8 °F /  2.1 °C 30.32in /  1026.6hPa ESE 0.9mph /  1.4km/h 1.0mph /  1.6km/h 55% 0.00in /  0mm 0.0 W/m2
01:43 51.3 °F /  10.7 °C 35.2 °F /  1.8 °C 30.32in /  1026.6hPa Calm   3.0mph /  4.8km/h 54% 0.00in /  0mm 0.0 W/m2
01:49 51.3 °F /  10.7 °C 35.2 °F /  1.8 °C 30.32in /  1026.6hPa Calm     54% 0.00in /  0mm 0.0 W/m2
01:55 51.1 °F /  10.6 °C 35.4 °F /  1.9 °C 30.32in /  1026.6hPa Calm     55% 0.00in /  0mm 0.0 W/m2
02:01 51.3 °F /  10.7 °C 35.6 °F /  2 °C 30.32in /  1026.6hPa SE 2.0mph /  3.2km/h 2.0mph /  3.2km/h 55% 0.00in /  0mm 0.0 W/m2
02:08 51.3 °F /  10.7 °C 35.6 °F /  2 °C 30.32in /  1026.6hPa Calm     55% 0.00in /  0mm 0.0 W/m2
02:14 51.3 °F /  10.7 °C 35.6 °F /  2 °C 30.31in /  1026.3hPa Calm   1.0mph /  1.6km/h 55% 0.00in /  0mm 0.0 W/m2
02:20 51.1 °F /  10.6 °C 35.4 °F /  1.9 °C 30.32in /  1026.6hPa Calm   1.0mph /  1.6km/h 55% 0.00in /  0mm 0.0 W/m2
02:26 51.3 °F /  10.7 °C 35.6 °F /  2 °C 30.32in /  1026.6hPa East 0.9mph /  1.4km/h 2.0mph /  3.2km/h 55% 0.00in /  0mm 0.0 W/m2
02:32 51.3 °F /  10.7 °C 35.6 °F /  2 °C 30.32in /  1026.6hPa Calm   1.0mph /  1.6km/h 55% 0.00in /  0mm 0.0 W/m2
02:38 51.3 °F /  10.7 °C 35.6 °F /  2 °C 30.32in /  1026.6hPa Calm     55% 0.00in /  0mm 0.0 W/m2
02:44 51.1 °F /  10.6 °C 35.4 °F /  1.9 °C 30.32in /  1026.6hPa Calm     55% 0.00in /  0mm 0.0 W/m2
02:52 51.1 °F /  10.6 °C 35.4 °F /  1.9 °C 30.32in /  1026.6hPa Calm     55% 0.00in /  0mm 0.0 W/m2
02:59 50.9 °F /  10.5 °C 35.2 °F /  1.8 °C 30.31in /  1026.3hPa Calm   2.0mph /  3.2km/h 55% 0.00in /  0mm 0.0 W/m2
03:05 50.9 °F /  10.5 °C 35.2 °F /  1.8 °C 30.31in /  1026.3hPa Calm     55% 0.00in /  0mm 0.0 W/m2
03:11 50.5 °F /  10.3 °C 35.1 °F /  1.7 °C 30.31in /  1026.3hPa Calm     55% 0.00in /  0mm 0.0 W/m2
03:17 50.2 °F /  10.1 °C 35.1 °F /  1.7 °C 30.31in /  1026.3hPa ESE 2.0mph /  3.2km/h 3.0mph /  4.8km/h 56% 0.00in /  0mm 0.0 W/m2
03:23 50.4 °F /  10.2 °C 35.2 °F /  1.8 °C 30.31in /  1026.3hPa ESE 0.9mph /  1.4km/h 1.0mph /  1.6km/h 56% 0.00in /  0mm 0.0 W/m2
03:29 50.5 °F /  10.3 °C 35.4 °F /  1.9 °C 30.31in /  1026.3hPa Calm   1.0mph /  1.6km/h 56% 0.00in /  0mm 0.0 W/m2
03:35 50.7 °F /  10.4 °C 35.1 °F /  1.7 °C 30.31in /  1026.3hPa East 0.9mph /  1.4km/h 3.0mph /  4.8km/h 55% 0.00in /  0mm 0.0 W/m2
03:41 51.1 °F /  10.6 °C 35.4 °F /  1.9 °C 30.31in /  1026.3hPa Calm     55% 0.00in /  0mm 0.0 W/m2
03:48 51.1 °F /  10.6 °C 35.4 °F /  1.9 °C 30.31in /  1026.3hPa East 0.9mph /  1.4km/h 1.0mph /  1.6km/h 55% 0.00in /  0mm 0.0 W/m2
03:54 51.1 °F /  10.6 °C 35.4 °F /  1.9 °C 30.30in /  1026hPa Calm   1.0mph /  1.6km/h 55% 0.00in /  0mm 0.0 W/m2
04:00 51.1 °F /  10.6 °C 35.4 °F /  1.9 °C 30.30in /  1026hPa Calm   2.0mph /  3.2km/h 55% 0.00in /  0mm 0.0 W/m2
04:06 50.9 °F /  10.5 °C 35.2 °F /  1.8 °C 30.30in /  1026hPa Calm   3.0mph /  4.8km/h 55% 0.00in /  0mm 0.0 W/m2
04:12 50.7 °F /  10.4 °C 35.1 °F /  1.7 °C 30.30in /  1026hPa Calm   1.0mph /  1.6km/h 55% 0.00in /  0mm 0.0 W/m2
04:18 50.5 °F /  10.3 °C 35.1 °F /  1.7 °C 30.30in /  1026hPa Calm   2.0mph /  3.2km/h 55% 0.00in /  0mm 0.0 W/m2
04:24 50.5 °F /  10.3 °C 35.4 °F /  1.9 °C 30.30in /  1026hPa Calm   2.0mph /  3.2km/h 56% 0.00in /  0mm 0.0 W/m2
04:30 50.4 °F /  10.2 °C 35.2 °F /  1.8 °C 30.30in /  1026hPa Calm   3.0mph /  4.8km/h 56% 0.00in /  0mm 0.0 W/m2
04:37 50.4 °F /  10.2 °C 35.2 °F /  1.8 °C 30.30in /  1026hPa Calm   2.0mph /  3.2km/h 56% 0.00in /  0mm 0.0 W/m2
04:43 50.2 °F /  10.1 °C 35.1 °F /  1.7 °C 30.30in /  1026hPa Calm   2.0mph /  3.2km/h 56% 0.00in /  0mm 0.0 W/m2
04:49 50.4 °F /  10.2 °C 35.2 °F /  1.8 °C 30.30in /  1026hPa Calm   1.0mph /  1.6km/h 56% 0.00in /  0mm 0.0 W/m2
04:55 50.4 °F /  10.2 °C 35.2 °F /  1.8 °C 30.30in /  1026hPa ESE 0.9mph /  1.4km/h 2.0mph /  3.2km/h 56% 0.00in /  0mm 0.0 W/m2
05:01 50.5 °F /  10.3 °C 35.1 °F /  1.7 °C 30.30in /  1026hPa Calm   2.0mph /  3.2km/h 55% 0.00in /  0mm 0.0 W/m2
05:07 50.4 °F /  10.2 °C 34.9 °F /  1.6 °C 30.30in /  1026hPa Calm   2.0mph /  3.2km/h 55% 0.00in /  0mm 0.0 W/m2
05:13 50.4 °F /  10.2 °C 34.9 °F /  1.6 °C 30.30in /  1026hPa Calm   4.0mph /  6.4km/h 55% 0.00in /  0mm 0.0 W/m2
05:19 50.4 °F /  10.2 °C 34.9 °F /  1.6 °C 30.30in /  1026hPa Calm   3.0mph /  4.8km/h 55% 0.00in /  0mm 0.0 W/m2
05:26 50.2 °F /  10.1 °C 34.7 °F /  1.5 °C 30.31in /  1026.3hPa East 0.9mph /  1.4km/h 4.0mph /  6.4km/h 55% 0.00in /  0mm 0.0 W/m2
05:32 50.2 °F /  10.1 °C 34.7 °F /  1.5 °C 30.31in /  1026.3hPa ENE 2.9mph /  4.7km/h 6.0mph /  9.7km/h 55% 0.00in /  0mm 0.0 W/m2
05:38 50.0 °F /  10 °C 34.5 °F /  1.4 °C 30.31in /  1026.3hPa Calm   3.0mph /  4.8km/h 55% 0.00in /  0mm 0.0 W/m2
05:44 50.2 °F /  10.1 °C 34.7 °F /  1.5 °C 30.32in /  1026.6hPa Calm   4.0mph /  6.4km/h 55% 0.00in /  0mm 0.0 W/m2
05:50 50.4 °F /  10.2 °C 34.9 °F /  1.6 °C 30.32in /  1026.6hPa Calm   6.0mph /  9.7km/h 55% 0.00in /  0mm 0.0 W/m2
05:56 50.9 °F /  10.5 °C 34.9 °F /  1.6 °C 30.33in /  1027hPa Calm   5.0mph /  8km/h 54% 0.00in /  0mm 0.0 W/m2
06:02 51.3 °F /  10.7 °C 35.2 °F /  1.8 °C 30.33in /  1027hPa Calm     54% 0.00in /  0mm 0.0 W/m2
06:09 51.4 °F /  10.8 °C 34.9 °F /  1.6 °C 30.33in /  1027hPa Calm     53% 0.00in /  0mm 0.0 W/m2
06:15 51.6 °F /  10.9 °C 35.1 °F /  1.7 °C 30.34in /  1027.3hPa Calm   5.0mph /  8km/h 53% 0.00in /  0mm 0.0 W/m2
06:21 51.6 °F /  10.9 °C 35.1 °F /  1.7 °C 30.34in /  1027.3hPa ENE 0.9mph /  1.4km/h 2.0mph /  3.2km/h 53% 0.00in /  0mm 0.0 W/m2
06:27 51.6 °F /  10.9 °C 35.1 °F /  1.7 °C 30.34in /  1027.3hPa Calm   3.0mph /  4.8km/h 53% 0.00in /  0mm 0.0 W/m2
06:33 51.6 °F /  10.9 °C 34.5 °F /  1.4 °C 30.35in /  1027.7hPa Calm     52% 0.00in /  0mm 0.0 W/m2
06:39 51.6 °F /  10.9 °C 35.1 °F /  1.7 °C 30.35in /  1027.7hPa Calm   1.0mph /  1.6km/h 53% 0.00in /  0mm 5.0 W/m2
06:45 51.6 °F /  10.9 °C 35.1 °F /  1.7 °C 30.35in /  1027.7hPa Calm   1.0mph /  1.6km/h 53% 0.00in /  0mm 11.0 W/m2
06:51 51.6 °F /  10.9 °C 35.1 °F /  1.7 °C 30.35in /  1027.7hPa Calm     53% 0.00in /  0mm 18.0 W/m2
06:57 51.6 °F /  10.9 °C 35.1 °F /  1.7 °C 30.36in /  1028hPa Calm     53% 0.00in /  0mm 21.0 W/m2
07:03 51.8 °F /  11 °C 35.2 °F /  1.8 °C 30.35in /  1027.7hPa Calm     53% 0.00in /  0mm 32.0 W/m2
07:09 51.8 °F /  11 °C 36.1 °F /  2.3 °C 30.36in /  1028hPa Calm     55% 0.00in /  0mm 40.0 W/m2
07:15 52.0 °F /  11.1 °C 35.8 °F /  2.1 °C 30.36in /  1028hPa Calm     54% 0.00in /  0mm 44.0 W/m2
07:21 52.0 °F /  11.1 °C 36.3 °F /  2.4 °C 30.36in /  1028hPa Calm     55% 0.00in /  0mm 53.0 W/m2
07:27 52.2 °F /  11.2 °C 37.4 °F /  3 °C 30.36in /  1028hPa Calm     57% 0.00in /  0mm 67.0 W/m2
07:33 52.2 °F /  11.2 °C 37.4 °F /  3 °C 30.36in /  1028hPa Calm     57% 0.00in /  0mm 69.0 W/m2
07:39 52.5 °F /  11.4 °C 37.2 °F /  2.9 °C 30.36in /  1028hPa Calm     56% 0.00in /  0mm 76.0 W/m2
07:45 52.9 °F /  11.6 °C 37.2 °F /  2.9 °C 30.36in /  1028hPa Calm     55% 0.00in /  0mm 83.0 W/m2
07:51 53.4 °F /  11.9 °C 36.7 °F /  2.6 °C 30.36in /  1028hPa Calm     53% 0.00in /  0mm 79.0 W/m2
07:57 54.1 °F /  12.3 °C 37.9 °F /  3.3 °C 30.36in /  1028hPa Calm     54% 0.00in /  0mm 86.0 W/m2
08:03 54.9 °F /  12.7 °C 37.6 °F /  3.1 °C 30.37in /  1028.3hPa Calm     52% 0.00in /  0mm 107.0 W/m2
08:09 55.8 °F /  13.2 °C 37.9 °F /  3.3 °C 30.37in /  1028.3hPa Calm     51% 0.00in /  0mm 202.0 W/m2
08:15 56.7 °F /  13.7 °C 37.8 °F /  3.2 °C 30.37in /  1028.3hPa Calm     49% 0.00in /  0mm 304.0 W/m2
08:21 57.9 °F /  14.4 °C 37.2 °F /  2.9 °C 30.37in /  1028.3hPa Calm     46% 0.00in /  0mm 322.0 W/m2
08:27 59.7 °F /  15.4 °C 37.2 °F /  2.9 °C 30.37in /  1028.3hPa Calm     43% 0.00in /  0mm 243.0 W/m2
08:33 61.2 °F /  16.2 °C 38.5 °F /  3.6 °C 30.37in /  1028.3hPa Calm     43% 0.00in /  0mm 353.0 W/m2
08:39 62.4 °F /  16.9 °C 38.5 °F /  3.6 °C 30.37in /  1028.3hPa Calm     41% 0.00in /  0mm 320.0 W/m2
08:45 63.0 °F /  17.2 °C 38.8 °F /  3.8 °C 30.37in /  1028.3hPa Calm     41% 0.00in /  0mm 364.0 W/m2
08:51 63.5 °F /  17.5 °C 39.4 °F /  4.1 °C 30.37in /  1028.3hPa Calm     41% 0.00in /  0mm 385.0 W/m2
08:57 64.4 °F /  18 °C 38.8 °F /  3.8 °C 30.37in /  1028.3hPa Calm     39% 0.00in /  0mm 394.0 W/m2
09:03 65.1 °F /  18.4 °C 38.8 °F /  3.8 °C 30.37in /  1028.3hPa Calm     38% 0.00in /  0mm 425.0 W/m2
09:09 65.8 °F /  18.8 °C 38.1 °F /  3.4 °C 30.37in /  1028.3hPa Calm     36% 0.00in /  0mm 417.0 W/m2
09:15 66.9 °F /  19.4 °C 38.3 °F /  3.5 °C 30.37in /  1028.3hPa Calm     35% 0.00in /  0mm 434.0 W/m2
09:21 67.6 °F /  19.8 °C 39.0 °F /  3.9 °C 30.37in /  1028.3hPa Calm   1.0mph /  1.6km/h 35% 0.00in /  0mm 446.0 W/m2
09:27 68.5 °F /  20.3 °C 38.3 °F /  3.5 °C 30.37in /  1028.3hPa NNE 0.9mph /  1.4km/h 2.0mph /  3.2km/h 33% 0.00in /  0mm 466.0 W/m2
09:33 69.8 °F /  21 °C 39.4 °F /  4.1 °C 30.37in /  1028.3hPa Calm   2.0mph /  3.2km/h 33% 0.00in /  0mm 483.0 W/m2
09:39 70.9 °F /  21.6 °C 39.6 °F /  4.2 °C 30.37in /  1028.3hPa Calm   1.0mph /  1.6km/h 32% 0.00in /  0mm 487.0 W/m2
09:45 71.2 °F /  21.8 °C 39.9 °F /  4.4 °C 30.37in /  1028.3hPa Calm   1.0mph /  1.6km/h 32% 0.00in /  0mm 501.0 W/m2
09:51 71.6 °F /  22 °C 39.4 °F /  4.1 °C 30.37in /  1028.3hPa North 2.0mph /  3.2km/h 5.0mph /  8km/h 31% 0.00in /  0mm 517.0 W/m2
09:57 72.3 °F /  22.4 °C 38.3 °F /  3.5 °C 30.37in /  1028.3hPa North 0.9mph /  1.4km/h 3.0mph /  4.8km/h 29% 0.00in /  0mm 531.0 W/m2
10:03 72.9 °F /  22.7 °C 38.7 °F /  3.7 °C 30.36in /  1028hPa NNE 4.0mph /  6.4km/h 5.0mph /  8km/h 29% 0.00in /  0mm 545.0 W/m2
10:09 73.4 °F /  23 °C 38.3 °F /  3.5 °C 30.36in /  1028hPa Calm   3.0mph /  4.8km/h 28% 0.00in /  0mm 555.0 W/m2
10:15 73.6 °F /  23.1 °C 40.3 °F /  4.6 °C 30.36in /  1028hPa Calm   5.0mph /  8km/h 30% 0.00in /  0mm 568.0 W/m2
10:21 73.9 °F /  23.3 °C 39.7 °F /  4.3 °C 30.35in /  1027.7hPa NNW 0.9mph /  1.4km/h 3.0mph /  4.8km/h 29% 0.00in /  0mm 578.0 W/m2
10:27 74.5 °F /  23.6 °C 40.1 °F /  4.5 °C 30.35in /  1027.7hPa NNW 4.0mph /  6.4km/h 6.0mph /  9.7km/h 29% 0.00in /  0mm 589.0 W/m2
10:33 74.8 °F /  23.8 °C 39.6 °F /  4.2 °C 30.35in /  1027.7hPa NNW 4.9mph /  7.9km/h 6.0mph /  9.7km/h 28% 0.00in /  0mm 596.0 W/m2
10:40 75.0 °F /  23.9 °C 39.7 °F /  4.3 °C 30.35in /  1027.7hPa West 0.9mph /  1.4km/h 4.0mph /  6.4km/h 28% 0.00in /  0mm 606.0 W/m2
10:46 75.2 °F /  24 °C 38.8 °F /  3.8 °C 30.35in /  1027.7hPa NNE 4.9mph /  7.9km/h 6.0mph /  9.7km/h 27% 0.00in /  0mm 615.0 W/m2
10:51 75.6 °F /  24.2 °C 40.1 °F /  4.5 °C 30.34in /  1027.3hPa Calm     28% 0.00in /  0mm 621.0 W/m2
10:57 75.6 °F /  24.2 °C 38.3 °F /  3.5 °C 30.34in /  1027.3hPa West 0.9mph /  1.4km/h 2.0mph /  3.2km/h 26% 0.00in /  0mm 629.0 W/m2
11:03 75.7 °F /  24.3 °C 38.5 °F /  3.6 °C 30.34in /  1027.3hPa Calm   4.0mph /  6.4km/h 26% 0.00in /  0mm 631.0 W/m2
11:09 76.3 °F /  24.6 °C 38.8 °F /  3.8 °C 30.34in /  1027.3hPa NNW 2.0mph /  3.2km/h 5.0mph /  8km/h 26% 0.00in /  0mm 640.0 W/m2
11:15 76.5 °F /  24.7 °C 37.0 °F /  2.8 °C 30.34in /  1027.3hPa NNW 2.9mph /  4.7km/h 5.0mph /  8km/h 24% 0.00in /  0mm 643.0 W/m2
11:21 76.5 °F /  24.7 °C 37.9 °F /  3.3 °C 30.33in /  1027hPa West 2.0mph /  3.2km/h 6.0mph /  9.7km/h 25% 0.00in /  0mm 643.0 W/m2
11:27 76.6 °F /  24.8 °C 39.2 °F /  4 °C 30.33in /  1027hPa West 2.0mph /  3.2km/h 2.0mph /  3.2km/h 26% 0.00in /  0mm 647.0 W/m2
11:33 76.8 °F /  24.9 °C 36.1 °F /  2.3 °C 30.33in /  1027hPa Calm   3.0mph /  4.8km/h 23% 0.00in /  0mm 647.0 W/m2
11:39 76.8 °F /  24.9 °C 37.2 °F /  2.9 °C 30.33in /  1027hPa NW 0.9mph /  1.4km/h 4.0mph /  6.4km/h 24% 0.00in /  0mm 654.0 W/m2
11:46 76.5 °F /  24.7 °C 36.0 °F /  2.2 °C 30.32in /  1026.6hPa Calm   3.0mph /  4.8km/h 23% 0.00in /  0mm 643.0 W/m2
11:52 76.3 °F /  24.6 °C 36.9 °F /  2.7 °C 30.32in /  1026.6hPa SW 2.0mph /  3.2km/h 5.0mph /  8km/h 24% 0.00in /  0mm 652.0 W/m2
11:58 76.5 °F /  24.7 °C 37.0 °F /  2.8 °C 30.32in /  1026.6hPa SW 2.0mph /  3.2km/h 3.0mph /  4.8km/h 24% 0.00in /  0mm 654.0 W/m2
12:04 76.5 °F /  24.7 °C 37.0 °F /  2.8 °C 30.32in /  1026.6hPa NNW 0.9mph /  1.4km/h 4.0mph /  6.4km/h 24% 0.00in /  0mm 657.0 W/m2
12:10 77.0 °F /  25 °C 36.3 °F /  2.4 °C 30.32in /  1026.6hPa NW 4.0mph /  6.4km/h 5.0mph /  8km/h 23% 0.00in /  0mm 652.0 W/m2
12:16 77.4 °F /  25.2 °C 36.7 °F /  2.6 °C 30.31in /  1026.3hPa North 2.0mph /  3.2km/h 8.0mph /  12.9km/h 23% 0.00in /  0mm 652.0 W/m2
12:22 77.4 °F /  25.2 °C 35.6 °F /  2 °C 30.31in /  1026.3hPa West 0.9mph /  1.4km/h 3.0mph /  4.8km/h 22% 0.00in /  0mm 650.0 W/m2
12:28 77.2 °F /  25.1 °C 36.5 °F /  2.5 °C 30.31in /  1026.3hPa NNW 0.9mph /  1.4km/h 2.0mph /  3.2km/h 23% 0.00in /  0mm 642.0 W/m2
12:34 77.4 °F /  25.2 °C 35.6 °F /  2 °C 30.30in /  1026hPa North 2.9mph /  4.7km/h 5.0mph /  8km/h 22% 0.00in /  0mm 640.0 W/m2
12:40 77.4 °F /  25.2 °C 36.7 °F /  2.6 °C 30.30in /  1026hPa SSE 0.9mph /  1.4km/h 3.0mph /  4.8km/h 23% 0.00in /  0mm 642.0 W/m2
12:46 77.4 °F /  25.2 °C 36.7 °F /  2.6 °C 30.30in /  1026hPa NNW 0.9mph /  1.4km/h 3.0mph /  4.8km/h 23% 0.00in /  0mm 633.0 W/m2
12:52 77.4 °F /  25.2 °C 36.7 °F /  2.6 °C 30.30in /  1026hPa SW 4.0mph /  6.4km/h 7.0mph /  11.3km/h 23% 0.00in /  0mm 628.0 W/m2
12:58 77.5 °F /  25.3 °C 35.8 °F /  2.1 °C 30.30in /  1026hPa West 0.9mph /  1.4km/h 2.0mph /  3.2km/h 22% 0.00in /  0mm 615.0 W/m2
13:04 77.5 °F /  25.3 °C 35.8 °F /  2.1 °C 30.29in /  1025.6hPa SE 0.9mph /  1.4km/h 3.0mph /  4.8km/h 22% 0.00in /  0mm 610.0 W/m2
13:10 77.7 °F /  25.4 °C 37.0 °F /  2.8 °C 30.29in /  1025.6hPa NW 2.0mph /  3.2km/h 7.0mph /  11.3km/h 23% 0.00in /  0mm 608.0 W/m2
13:17 78.1 °F /  25.6 °C 36.1 °F /  2.3 °C 30.29in /  1025.6hPa NW 2.0mph /  3.2km/h 5.0mph /  8km/h 22% 0.00in /  0mm 596.0 W/m2
13:22 78.1 °F /  25.6 °C 34.9 °F /  1.6 °C 30.28in /  1025.3hPa NNW 2.0mph /  3.2km/h 3.0mph /  4.8km/h 21% 0.00in /  0mm 584.0 W/m2
13:29 78.1 °F /  25.6 °C 36.1 °F /  2.3 °C 30.28in /  1025.3hPa North 2.0mph /  3.2km/h 7.0mph /  11.3km/h 22% 0.00in /  0mm 573.0 W/m2
13:35 77.9 °F /  25.5 °C 34.9 °F /  1.6 °C 30.28in /  1025.3hPa Calm   4.0mph /  6.4km/h 21% 0.00in /  0mm 566.0 W/m2
13:41 77.9 °F /  25.5 °C 36.0 °F /  2.2 °C 30.28in /  1025.3hPa Calm   3.0mph /  4.8km/h 22% 0.00in /  0mm 552.0 W/m2
13:47 77.5 °F /  25.3 °C 35.8 °F /  2.1 °C 30.28in /  1025.3hPa Calm   2.0mph /  3.2km/h 22% 0.00in /  0mm 541.0 W/m2
13:53 77.4 °F /  25.2 °C 35.6 °F /  2 °C 30.27in /  1024.9hPa SW 0.9mph /  1.4km/h 4.0mph /  6.4km/h 22% 0.00in /  0mm 527.0 W/m2
13:59 77.5 °F /  25.3 °C 35.8 °F /  2.1 °C 30.27in /  1024.9hPa West 2.9mph /  4.7km/h 7.0mph /  11.3km/h 22% 0.00in /  0mm 517.0 W/m2
14:05 77.4 °F /  25.2 °C 35.6 °F /  2 °C 30.27in /  1024.9hPa West 4.9mph /  7.9km/h 5.0mph /  8km/h 22% 0.00in /  0mm 497.0 W/m2
14:11 77.4 °F /  25.2 °C 35.6 °F /  2 °C 30.27in /  1024.9hPa North 0.9mph /  1.4km/h 5.0mph /  8km/h 22% 0.00in /  0mm 485.0 W/m2
14:17 77.5 °F /  25.3 °C 35.8 °F /  2.1 °C 30.27in /  1024.9hPa Calm   1.0mph /  1.6km/h 22% 0.00in /  0mm 473.0 W/m2
14:23 77.7 °F /  25.4 °C 35.8 °F /  2.1 °C 30.27in /  1024.9hPa Calm   1.0mph /  1.6km/h 22% 0.00in /  0mm 457.0 W/m2
14:29 77.9 °F /  25.5 °C 36.0 °F /  2.2 °C 30.27in /  1024.9hPa Calm   3.0mph /  4.8km/h 22% 0.00in /  0mm 446.0 W/m2
14:35 77.9 °F /  25.5 °C 34.9 °F /  1.6 °C 30.26in /  1024.6hPa Calm   6.0mph /  9.7km/h 21% 0.00in /  0mm 429.0 W/m2
14:41 77.7 °F /  25.4 °C 35.8 °F /  2.1 °C 30.26in /  1024.6hPa Calm   1.0mph /  1.6km/h 22% 0.00in /  0mm 415.0 W/m2
14:47 77.5 °F /  25.3 °C 34.5 °F /  1.4 °C 30.26in /  1024.6hPa SW 0.9mph /  1.4km/h 3.0mph /  4.8km/h 21% 0.00in /  0mm 396.0 W/m2
14:55 77.2 °F /  25.1 °C 35.4 °F /  1.9 °C 30.26in /  1024.6hPa Calm   1.0mph /  1.6km/h 22% 0.00in /  0mm 371.0 W/m2
15:01 77.2 °F /  25.1 °C 35.4 °F /  1.9 °C 30.26in /  1024.6hPa Calm   2.0mph /  3.2km/h 22% 0.00in /  0mm 355.0 W/m2
15:07 77.4 °F /  25.2 °C 35.6 °F /  2 °C 30.26in /  1024.6hPa Calm   3.0mph /  4.8km/h 22% 0.00in /  0mm 339.0 W/m2
15:13 77.2 °F /  25.1 °C 35.4 °F /  1.9 °C 30.26in /  1024.6hPa NNE 2.9mph /  4.7km/h 3.0mph /  4.8km/h 22% 0.00in /  0mm 322.0 W/m2
15:19 76.8 °F /  24.9 °C 35.1 °F /  1.7 °C 30.25in /  1024.3hPa Calm     22% 0.00in /  0mm 304.0 W/m2
15:25 76.5 °F /  24.7 °C 34.9 °F /  1.6 °C 30.26in /  1024.6hPa West 0.9mph /  1.4km/h 3.0mph /  4.8km/h 22% 0.00in /  0mm 288.0 W/m2
15:31 76.5 °F /  24.7 °C 34.9 °F /  1.6 °C 30.26in /  1024.6hPa WNW 2.0mph /  3.2km/h 5.0mph /  8km/h 22% 0.00in /  0mm 223.0 W/m2
15:38 76.1 °F /  24.5 °C 34.5 °F /  1.4 °C 30.26in /  1024.6hPa Calm   3.0mph /  4.8km/h 22% 0.00in /  0mm 63.0 W/m2
15:44 75.7 °F /  24.3 °C 35.2 °F /  1.8 °C 30.26in /  1024.6hPa Calm     23% 0.00in /  0mm 60.0 W/m2
15:50 75.6 °F /  24.2 °C 35.2 °F /  1.8 °C 30.26in /  1024.6hPa Calm   2.0mph /  3.2km/h 23% 0.00in /  0mm 58.0 W/m2
15:56 75.2 °F /  24 °C 34.9 °F /  1.6 °C 30.26in /  1024.6hPa Calm   1.0mph /  1.6km/h 23% 0.00in /  0mm 54.0 W/m2
16:02 75.0 °F /  23.9 °C 34.7 °F /  1.5 °C 30.26in /  1024.6hPa Calm     23% 0.00in /  0mm 51.0 W/m2
16:09 74.7 °F /  23.7 °C 34.3 °F /  1.3 °C 30.26in /  1024.6hPa Calm     23% 0.00in /  0mm 46.0 W/m2
16:15 74.5 °F /  23.6 °C 35.2 °F /  1.8 °C 30.26in /  1024.6hPa Calm   1.0mph /  1.6km/h 24% 0.00in /  0mm 40.0 W/m2
16:20 74.1 °F /  23.4 °C 35.1 °F /  1.7 °C 30.26in /  1024.6hPa Calm   2.0mph /  3.2km/h 24% 0.00in /  0mm 37.0 W/m2
16:26 73.9 °F /  23.3 °C 34.9 °F /  1.6 °C 30.26in /  1024.6hPa Calm   1.0mph /  1.6km/h 24% 0.00in /  0mm 35.0 W/m2
16:33 73.8 °F /  23.2 °C 35.8 °F /  2.1 °C 30.26in /  1024.6hPa Calm   1.0mph /  1.6km/h 25% 0.00in /  0mm 32.0 W/m2
16:39 73.4 °F /  23 °C 34.3 °F /  1.3 °C 30.26in /  1024.6hPa WSW 0.9mph /  1.4km/h 2.0mph /  3.2km/h 24% 0.00in /  0mm 30.0 W/m2
16:45 73.2 °F /  22.9 °C 35.2 °F /  1.8 °C 30.26in /  1024.6hPa Calm   1.0mph /  1.6km/h 25% 0.00in /  0mm 26.0 W/m2
16:51 72.9 °F /  22.7 °C 35.1 °F /  1.7 °C 30.26in /  1024.6hPa Calm     25% 0.00in /  0mm 23.0 W/m2
16:57 72.5 °F /  22.5 °C 35.6 °F /  2 °C 30.26in /  1024.6hPa Calm     26% 0.00in /  0mm 19.0 W/m2
17:03 72.0 °F /  22.2 °C 36.1 °F /  2.3 °C 30.27in /  1024.9hPa Calm     27% 0.00in /  0mm 16.0 W/m2
17:09 71.4 °F /  21.9 °C 35.8 °F /  2.1 °C 30.27in /  1024.9hPa Calm     27% 0.00in /  0mm 12.0 W/m2
17:15 70.9 °F /  21.6 °C 36.1 °F /  2.3 °C 30.27in /  1024.9hPa Calm     28% 0.00in /  0mm 7.0 W/m2
17:21 70.2 °F /  21.2 °C 36.5 °F /  2.5 °C 30.27in /  1024.9hPa Calm     29% 0.00in /  0mm 0.0 W/m2
17:27 69.4 °F /  20.8 °C 35.8 °F /  2.1 °C 30.27in /  1024.9hPa Calm     29% 0.00in /  0mm 0.0 W/m2
17:33 68.7 °F /  20.4 °C 35.2 °F /  1.8 °C 30.27in /  1024.9hPa Calm     29% 0.00in /  0mm 0.0 W/m2
17:39 67.8 °F /  19.9 °C 35.2 °F /  1.8 °C 30.27in /  1024.9hPa Calm     30% 0.00in /  0mm 0.0 W/m2
17:45 67.3 °F /  19.6 °C 34.7 °F /  1.5 °C 30.27in /  1024.9hPa Calm     30% 0.00in /  0mm 0.0 W/m2
17:51 66.6 °F /  19.2 °C 35.1 °F /  1.7 °C 30.28in /  1025.3hPa Calm     31% 0.00in /  0mm 0.0 W/m2
17:58 65.8 °F /  18.8 °C 35.2 °F /  1.8 °C 30.27in /  1024.9hPa Calm     32% 0.00in /  0mm 0.0 W/m2
18:05 65.1 °F /  18.4 °C 35.2 °F /  1.8 °C 30.27in /  1024.9hPa Calm     33% 0.00in /  0mm 0.0 W/m2
18:11 64.6 °F /  18.1 °C 34.9 °F /  1.6 °C 30.28in /  1025.3hPa Calm     33% 0.00in /  0mm 0.0 W/m2
18:16 63.9 °F /  17.7 °C 34.9 °F /  1.6 °C 30.28in /  1025.3hPa Calm     34% 0.00in /  0mm 0.0 W/m2
18:22 63.3 °F /  17.4 °C 34.5 °F /  1.4 °C 30.28in /  1025.3hPa Calm     34% 0.00in /  0mm 0.0 W/m2
18:28 62.6 °F /  17 °C 34.5 °F /  1.4 °C 30.28in /  1025.3hPa Calm   2.0mph /  3.2km/h 35% 0.00in /  0mm 0.0 W/m2
18:36 62.1 °F /  16.7 °C 34.2 °F /  1.2 °C 30.29in /  1025.6hPa Calm     35% 0.00in /  0mm 0.0 W/m2
18:42 61.3 °F /  16.3 °C 34.9 °F /  1.6 °C 30.29in /  1025.6hPa Calm     37% 0.00in /  0mm 0.0 W/m2
18:49 61.0 °F /  16.1 °C 34.5 °F /  1.4 °C 30.29in /  1025.6hPa Calm     37% 0.00in /  0mm 0.0 W/m2
18:55 60.4 °F /  15.8 °C 34.7 °F /  1.5 °C 30.29in /  1025.6hPa Calm     38% 0.00in /  0mm 0.0 W/m2
19:01 60.1 °F /  15.6 °C 34.3 °F /  1.3 °C 30.30in /  1026hPa Calm     38% 0.00in /  0mm 0.0 W/m2
19:07 59.7 °F /  15.4 °C 34.7 °F /  1.5 °C 30.30in /  1026hPa Calm     39% 0.00in /  0mm 0.0 W/m2
19:13 59.2 °F /  15.1 °C 33.6 °F /  0.9 °C 30.30in /  1026hPa Calm     38% 0.00in /  0mm 0.0 W/m2
19:19 58.8 °F /  14.9 °C 34.0 °F /  1.1 °C 30.30in /  1026hPa Calm     39% 0.00in /  0mm 0.0 W/m2
19:25 58.5 °F /  14.7 °C 33.6 °F /  0.9 °C 30.30in /  1026hPa Calm   1.0mph /  1.6km/h 39% 0.00in /  0mm 0.0 W/m2
19:32 58.3 °F /  14.6 °C 33.4 °F /  0.8 °C 30.30in /  1026hPa Calm     39% 0.00in /  0mm 0.0 W/m2
19:38 58.3 °F /  14.6 °C 33.4 °F /  0.8 °C 30.30in /  1026hPa Calm     39% 0.00in /  0mm 0.0 W/m2
19:44 58.1 °F /  14.5 °C 34.0 °F /  1.1 °C 30.31in /  1026.3hPa Calm     40% 0.00in /  0mm 0.0 W/m2
19:50 58.3 °F /  14.6 °C 34.0 °F /  1.1 °C 30.31in /  1026.3hPa Calm   1.0mph /  1.6km/h 40% 0.00in /  0mm 0.0 W/m2
19:56 58.3 °F /  14.6 °C 34.0 °F /  1.1 °C 30.31in /  1026.3hPa Calm   1.0mph /  1.6km/h 40% 0.00in /  0mm 0.0 W/m2
20:02 57.9 °F /  14.4 °C 33.1 °F /  0.6 °C 30.31in /  1026.3hPa Calm   1.0mph /  1.6km/h 39% 0.00in /  0mm 0.0 W/m2
20:08 57.9 °F /  14.4 °C 33.8 °F /  1 °C 30.31in /  1026.3hPa Calm   1.0mph /  1.6km/h 40% 0.00in /  0mm 0.0 W/m2
20:14 57.7 °F /  14.3 °C 33.6 °F /  0.9 °C 30.31in /  1026.3hPa ESE 0.9mph /  1.4km/h 1.0mph /  1.6km/h 40% 0.00in /  0mm 0.0 W/m2
20:20 57.7 °F /  14.3 °C 33.6 °F /  0.9 °C 30.31in /  1026.3hPa Calm     40% 0.00in /  0mm 0.0 W/m2
20:26 57.7 °F /  14.3 °C 33.6 °F /  0.9 °C 30.32in /  1026.6hPa Calm     40% 0.00in /  0mm 0.0 W/m2
20:32 57.6 °F /  14.2 °C 34.0 °F /  1.1 °C 30.32in /  1026.6hPa Calm     41% 0.00in /  0mm 0.0 W/m2
20:38 57.4 °F /  14.1 °C 33.8 °F /  1 °C 30.32in /  1026.6hPa Calm     41% 0.00in /  0mm 0.0 W/m2
20:45 57.0 °F /  13.9 °C 33.6 °F /  0.9 °C 30.32in /  1026.6hPa Calm   2.0mph /  3.2km/h 41% 0.00in /  0mm 0.0 W/m2
20:51 57.0 °F /  13.9 °C 33.6 °F /  0.9 °C 30.32in /  1026.6hPa Calm     41% 0.00in /  0mm 0.0 W/m2
20:57 56.7 °F /  13.7 °C 33.8 °F /  1 °C 30.32in /  1026.6hPa Calm     42% 0.00in /  0mm 0.0 W/m2
21:03 56.5 °F /  13.6 °C 33.6 °F /  0.9 °C 30.32in /  1026.6hPa Calm     42% 0.00in /  0mm 0.0 W/m2
21:09 56.7 °F /  13.7 °C 33.8 °F /  1 °C 30.32in /  1026.6hPa Calm   1.0mph /  1.6km/h 42% 0.00in /  0mm 0.0 W/m2
21:15 56.7 °F /  13.7 °C 33.3 °F /  0.7 °C 30.32in /  1026.6hPa SSE 2.0mph /  3.2km/h 2.0mph /  3.2km/h 41% 0.00in /  0mm 0.0 W/m2
21:21 56.8 °F /  13.8 °C 33.4 °F /  0.8 °C 30.32in /  1026.6hPa Calm   1.0mph /  1.6km/h 41% 0.00in /  0mm 0.0 W/m2
21:28 57.0 °F /  13.9 °C 33.6 °F /  0.9 °C 30.32in /  1026.6hPa Calm   2.0mph /  3.2km/h 41% 0.00in /  0mm 0.0 W/m2
21:34 56.8 °F /  13.8 °C 33.4 °F /  0.8 °C 30.32in /  1026.6hPa Calm   1.0mph /  1.6km/h 41% 0.00in /  0mm 0.0 W/m2
21:40 56.7 °F /  13.7 °C 33.8 °F /  1 °C 30.32in /  1026.6hPa Calm   1.0mph /  1.6km/h 42% 0.00in /  0mm 0.0 W/m2
21:46 56.5 °F /  13.6 °C 33.6 °F /  0.9 °C 30.32in /  1026.6hPa SE 0.9mph /  1.4km/h 1.0mph /  1.6km/h 42% 0.00in /  0mm 0.0 W/m2
21:52 56.1 °F /  13.4 °C 33.3 °F /  0.7 °C 30.32in /  1026.6hPa Calm     42% 0.00in /  0mm 0.0 W/m2
21:58 55.8 °F /  13.2 °C 33.6 °F /  0.9 °C 30.32in /  1026.6hPa Calm     43% 0.00in /  0mm 0.0 W/m2
22:04 55.2 °F /  12.9 °C 33.6 °F /  0.9 °C 30.32in /  1026.6hPa Calm     44% 0.00in /  0mm 0.0 W/m2
22:10 55.0 °F /  12.8 °C 34.2 °F /  1.2 °C 30.32in /  1026.6hPa Calm     45% 0.00in /  0mm 0.0 W/m2
22:16 54.7 °F /  12.6 °C 33.8 °F /  1 °C 30.32in /  1026.6hPa Calm     45% 0.00in /  0mm 0.0 W/m2
22:22 54.3 °F /  12.4 °C 34.0 °F /  1.1 °C 30.32in /  1026.6hPa Calm     46% 0.00in /  0mm 0.0 W/m2
22:29 54.0 °F /  12.2 °C 34.2 °F /  1.2 °C 30.32in /  1026.6hPa Calm     47% 0.00in /  0mm 0.0 W/m2
22:35 53.8 °F /  12.1 °C 33.4 °F /  0.8 °C 30.32in /  1026.6hPa Calm     46% 0.00in /  0mm 0.0 W/m2
22:41 53.4 °F /  11.9 °C 33.6 °F /  0.9 °C 30.32in /  1026.6hPa Calm     47% 0.00in /  0mm 0.0 W/m2
22:47 53.4 °F /  11.9 °C 33.6 °F /  0.9 °C 30.32in /  1026.6hPa Calm   1.0mph /  1.6km/h 47% 0.00in /  0mm 0.0 W/m2
22:53 53.6 °F /  12 °C 33.8 °F /  1 °C 30.32in /  1026.6hPa Calm   1.0mph /  1.6km/h 47% 0.00in /  0mm 0.0 W/m2
22:59 53.4 °F /  11.9 °C 33.6 °F /  0.9 °C 30.32in /  1026.6hPa Calm     47% 0.00in /  0mm 0.0 W/m2
23:05 53.2 °F /  11.8 °C 34.0 °F /  1.1 °C 30.32in /  1026.6hPa Calm     48% 0.00in /  0mm 0.0 W/m2
23:11 53.1 °F /  11.7 °C 33.8 °F /  1 °C 30.32in /  1026.6hPa Calm   1.0mph /  1.6km/h 48% 0.00in /  0mm 0.0 W/m2
23:18 53.1 °F /  11.7 °C 33.8 °F /  1 °C 30.32in /  1026.6hPa Calm   2.0mph /  3.2km/h 48% 0.00in /  0mm 0.0 W/m2
23:24 53.2 °F /  11.8 °C 34.0 °F /  1.1 °C 30.32in /  1026.6hPa Calm   2.0mph /  3.2km/h 48% 0.00in /  0mm 0.0 W/m2
23:30 53.4 °F /  11.9 °C 34.2 °F /  1.2 °C 30.32in /  1026.6hPa Calm     48% 0.00in /  0mm 0.0 W/m2
23:36 53.8 °F /  12.1 °C 34.0 °F /  1.1 °C 30.31in /  1026.3hPa Calm   1.0mph /  1.6km/h 47% 0.00in /  0mm 0.0 W/m2
23:42 54.0 °F /  12.2 °C 34.2 °F /  1.2 °C 30.31in /  1026.3hPa ESE 0.9mph /  1.4km/h 1.0mph /  1.6km/h 47% 0.00in /  0mm 0.0 W/m2
23:48 54.1 °F /  12.3 °C 33.8 °F /  1 °C 30.31in /  1026.3hPa East 0.9mph /  1.4km/h 3.0mph /  4.8km/h 46% 0.00in /  0mm 0.0 W/m2
23:54 54.1 °F /  12.3 °C 34.3 °F /  1.3 °C 30.31in /  1026.3hPa NE 0.9mph /  1.4km/h 2.0mph /  3.2km/h 47% 0.00in /  0mm 0.0 W/m2
Olympia, Windhoek, Namibia
Compliments of Weather Underground - 3 mb